Time;durP1;ratioP1;P1;durP2;ratioP2;P2;SDS_P1;SDS_P2;PMS_P1;PMS_P2;Temp;Humidity;BMP_temperature;BMP_pressure;BME280_temperature;BME280_humidity;BME280_pressure;Samples;Min_cycle;Max_cycle;Signal;HPM_P1;HPM_P2
2022/07/08 00:01:51;;;;;;;4.40;1.20;;;22.00;68.70;;;;;;5039078;28;20032;-62
2022/07/08 00:04:16;;;;;;;4.18;1.60;;;22.00;68.80;;;;;;5039361;28;20037;-61
2022/07/08 00:06:42;;;;;;;3.60;1.02;;;21.90;68.90;;;;;;5038821;28;20040;-62
2022/07/08 00:09:10;;;;;;;7.72;1.52;;;21.90;68.90;;;;;;5040471;28;20114;-61
2022/07/08 00:11:36;;;;;;;14.32;2.25;;;21.90;69.00;;;;;;5039894;28;20438;-64
2022/07/08 00:14:01;;;;;;;13.93;1.75;;;21.90;69.10;;;;;;5042653;28;20025;-61
2022/07/08 00:16:27;;;;;;;8.43;1.58;;;21.90;69.20;;;;;;5044141;28;20464;-62
2022/07/08 00:18:52;;;;;;;4.07;1.60;;;21.80;69.20;;;;;;5045425;28;20554;-63
2022/07/08 00:21:18;;;;;;;4.35;1.50;;;21.80;69.10;;;;;;5042204;28;20105;-62
2022/07/08 00:23:43;;;;;;;9.73;2.10;;;21.80;69.20;;;;;;5042113;28;20485;-61
2022/07/08 00:26:09;;;;;;;6.43;1.88;;;21.80;70.00;;;;;;5042846;28;20055;-62
2022/07/08 00:28:35;;;;;;;14.95;1.75;;;21.80;70.10;;;;;;5041316;28;20436;-62
2022/07/08 00:31:00;;;;;;;5.07;1.33;;;21.70;69.40;;;;;;5046074;28;20140;-61
2022/07/08 00:33:26;;;;;;;2.70;1.40;;;21.70;69.50;;;;;;5042750;28;20056;-61
2022/07/08 00:35:51;;;;;;;8.10;1.75;;;21.70;69.60;;;;;;5042008;28;20041;-60
2022/07/08 00:38:17;;;;;;;5.57;1.80;;;21.70;69.50;;;;;;5042213;28;20060;-63
2022/07/08 00:40:42;;;;;;;13.93;2.30;;;21.70;69.70;;;;;;5043913;28;20033;-62
2022/07/08 00:43:11;;;;;;;7.60;1.80;;;21.70;69.70;;;;;;5044219;28;20021;-63
2022/07/08 00:45:37;;;;;;;6.05;1.55;;;21.70;69.90;;;;;;5026339;28;20033;-63
2022/07/08 00:48:03;;;;;;;7.95;1.85;;;21.70;69.90;;;;;;5041420;28;20086;-62
2022/07/08 00:50:28;;;;;;;7.07;1.58;;;21.60;70.00;;;;;;5040861;28;20043;-61
2022/07/08 00:52:54;;;;;;;4.38;1.40;;;21.60;70.10;;;;;;5009400;28;20629;-61
2022/07/08 00:55:19;;;;;;;8.50;1.80;;;21.60;70.10;;;;;;5026368;28;20323;-62
2022/07/08 00:57:45;;;;;;;7.25;1.70;;;21.50;70.20;;;;;;5042947;28;20272;-61
2022/07/08 01:00:11;;;;;;;7.40;1.60;;;21.50;70.40;;;;;;5042201;28;20107;-62
2022/07/08 01:02:36;;;;;;;5.15;1.70;;;21.50;70.50;;;;;;5040482;28;20694;-61
2022/07/08 01:05:02;;;;;;;5.32;1.48;;;21.40;70.50;;;;;;5041587;28;20464;-61
2022/07/08 01:07:27;;;;;;;5.20;1.17;;;21.40;70.70;;;;;;5008705;28;20041;-61
2022/07/08 01:09:53;;;;;;;10.85;1.60;;;21.40;70.90;;;;;;5042190;28;20028;-60
2022/07/08 01:12:18;;;;;;;9.77;1.35;;;21.40;70.80;;;;;;5025362;28;20040;-61
2022/07/08 01:14:44;;;;;;;10.15;1.52;;;21.40;70.80;;;;;;5010734;28;20485;-61
2022/07/08 01:17:09;;;;;;;12.13;1.58;;;21.40;70.90;;;;;;5038031;28;20029;-62
2022/07/08 01:19:35;;;;;;;2.92;1.15;;;21.30;70.90;;;;;;5044073;28;20059;-63
2022/07/08 01:22:00;;;;;;;6.05;1.60;;;21.30;71.10;;;;;;5044068;28;20036;-61
2022/07/08 01:24:26;;;;;;;5.05;1.52;;;21.30;71.10;;;;;;5043366;28;20033;-62
2022/07/08 01:26:52;;;;;;;5.10;1.60;;;21.30;71.10;;;;;;5043045;28;20025;-62
2022/07/08 01:29:17;;;;;;;3.85;1.65;;;21.30;71.10;;;;;;5039344;28;20040;-61
2022/07/08 01:31:43;;;;;;;7.53;1.92;;;21.30;71.10;;;;;;5008080;28;20025;-63
2022/07/08 01:34:08;;;;;;;4.88;1.73;;;21.30;71.20;;;;;;5039923;28;20033;-63
2022/07/08 01:36:34;;;;;;;6.47;1.70;;;21.20;71.20;;;;;;5040868;28;20029;-63
2022/07/08 01:38:59;;;;;;;2.58;1.48;;;21.20;71.30;;;;;;5008113;28;20476;-63
2022/07/08 01:41:25;;;;;;;4.07;1.70;;;21.20;71.30;;;;;;5042501;28;20508;-61
2022/07/08 01:43:50;;;;;;;4.03;1.30;;;21.20;71.40;;;;;;5040698;28;20040;-61
2022/07/08 01:46:16;;;;;;;3.47;1.30;;;21.20;71.40;;;;;;5038925;28;20170;-62
2022/07/08 01:48:42;;;;;;;2.13;1.40;;;21.10;71.60;;;;;;5042972;28;20028;-61
2022/07/08 01:51:07;;;;;;;2.40;1.00;;;21.10;71.60;;;;;;5023808;28;20040;-62
2022/07/08 01:53:33;;;;;;;6.85;1.27;;;21.10;71.70;;;;;;5020976;28;20025;-63
2022/07/08 01:55:58;;;;;;;2.95;1.20;;;21.10;71.70;;;;;;5041115;28;20033;-62
2022/07/08 01:58:24;;;;;;;2.05;1.23;;;21.10;71.80;;;;;;5023327;28;20032;-63
2022/07/08 02:00:50;;;;;;;3.20;1.33;;;21.10;71.90;;;;;;5023727;28;20455;-61
2022/07/08 02:03:15;;;;;;;2.90;1.20;;;21.10;72.00;;;;;;5039988;28;20797;-61
2022/07/08 02:05:41;;;;;;;3.08;1.58;;;21.10;72.10;;;;;;5040285;28;20045;-62
2022/07/08 02:08:06;;;;;;;4.25;1.55;;;21.10;72.10;;;;;;5039641;28;20029;-61
2022/07/08 02:13:17;;;;;;;3.83;1.20;;;21.00;72.10;;;;;;5043329;28;20691;-61
2022/07/08 02:15:43;;;;;;;2.03;1.20;;;21.00;72.20;;;;;;5021116;28;20040;-63
2022/07/08 02:18:08;;;;;;;2.60;1.10;;;21.00;72.20;;;;;;5041564;28;20029;-63
2022/07/08 02:20:34;;;;;;;5.22;2.40;;;21.00;72.30;;;;;;5042660;28;20182;-62
2022/07/08 02:22:59;;;;;;;4.13;1.60;;;21.00;72.50;;;;;;5040555;28;20086;-61
2022/07/08 02:25:25;;;;;;;3.33;1.50;;;21.00;72.50;;;;;;5038264;28;20087;-62
2022/07/08 02:27:50;;;;;;;3.78;1.58;;;21.00;72.60;;;;;;5028712;28;20365;-62
2022/07/08 02:30:16;;;;;;;2.42;1.30;;;20.90;72.60;;;;;;5042445;28;20029;-62
2022/07/08 02:32:41;;;;;;;5.22;1.63;;;20.90;72.60;;;;;;5040470;28;20045;-62
2022/07/08 02:35:07;;;;;;;5.43;1.52;;;20.90;72.70;;;;;;5038462;28;20053;-62
2022/07/08 02:37:33;;;;;;;3.40;1.67;;;20.90;72.70;;;;;;5040521;28;20044;-62
2022/07/08 02:39:58;;;;;;;2.95;1.55;;;20.90;72.70;;;;;;5037654;28;20044;-62
2022/07/08 02:42:24;;;;;;;4.40;1.23;;;20.90;72.80;;;;;;5042363;28;20029;-62
2022/07/08 02:44:49;;;;;;;2.78;1.00;;;20.90;72.80;;;;;;5036114;28;20510;-62
2022/07/08 02:47:15;;;;;;;2.22;1.27;;;20.90;72.80;;;;;;5039825;28;20060;-63
2022/07/08 02:49:41;;;;;;;6.25;2.17;;;20.90;73.00;;;;;;5040113;28;20115;-61
2022/07/08 02:52:06;;;;;;;5.30;2.85;;;20.90;73.10;;;;;;5038823;28;20041;-62
2022/07/08 02:54:32;;;;;;;4.38;2.60;;;20.80;73.10;;;;;;5040196;28;20588;-61
2022/07/08 02:56:57;;;;;;;3.92;2.20;;;20.70;73.10;;;;;;5038038;28;20029;-62
2022/07/08 02:59:23;;;;;;;4.63;1.80;;;20.80;73.10;;;;;;5040932;28;20079;-61
2022/07/08 03:01:48;;;;;;;4.20;2.72;;;20.80;73.30;;;;;;5033376;28;20025;-62
2022/07/08 03:04:14;;;;;;;6.45;4.00;;;20.80;73.00;;;;;;5038329;28;20087;-61
2022/07/08 03:06:39;;;;;;;7.53;2.70;;;20.80;73.00;;;;;;5039618;28;20370;-62
2022/07/08 03:09:05;;;;;;;4.95;2.42;;;20.80;73.00;;;;;;5037309;28;20559;-60
2022/07/08 03:11:30;;;;;;;4.60;1.98;;;20.80;73.00;;;;;;5020779;28;20071;-63
2022/07/08 03:13:56;;;;;;;2.00;1.83;;;20.80;72.90;;;;;;5039344;28;20037;-62
2022/07/08 03:16:21;;;;;;;2.67;1.50;;;20.80;73.00;;;;;;5036970;28;20388;-62
2022/07/08 03:18:47;;;;;;;2.83;1.58;;;20.80;72.90;;;;;;5037242;28;20059;-63
2022/07/08 03:21:12;;;;;;;6.95;1.80;;;20.80;72.90;;;;;;5037893;28;20504;-61
2022/07/08 03:23:38;;;;;;;1.85;1.20;;;20.80;72.90;;;;;;5038805;28;20039;-62
2022/07/08 03:26:04;;;;;;;2.67;1.40;;;20.70;72.90;;;;;;5023100;28;20073;-61
2022/07/08 03:28:29;;;;;;;2.10;1.33;;;20.70;72.80;;;;;;5021674;28;20159;-61
2022/07/08 03:30:55;;;;;;;1.98;1.33;;;20.70;72.80;;;;;;5023187;28;20028;-62
2022/07/08 03:33:20;;;;;;;5.50;2.63;;;20.80;72.90;;;;;;5021715;28;20029;-63
2022/07/08 03:35:46;;;;;;;2.80;2.10;;;20.70;72.90;;;;;;5037561;28;20321;-63
2022/07/08 03:38:11;;;;;;;3.75;1.88;;;20.70;73.00;;;;;;5022711;28;20048;-61
2022/07/08 03:43:21;;;;;;;3.15;1.90;;;20.60;73.00;;;;;;5041385;28;20074;-61
2022/07/08 03:45:47;;;;;;;7.90;2.00;;;20.60;73.80;;;;;;5041635;28;20021;-61
2022/07/08 03:48:13;;;;;;;4.10;2.05;;;20.60;73.20;;;;;;5047105;28;20421;-63
2022/07/08 03:50:38;;;;;;;3.75;2.50;;;20.60;73.20;;;;;;5047261;28;20079;-61
2022/07/08 03:53:04;;;;;;;2.90;2.03;;;20.60;73.20;;;;;;5041460;28;20033;-62
2022/07/08 03:55:29;;;;;;;6.35;3.70;;;20.60;73.10;;;;;;5046754;28;20460;-61
2022/07/08 03:57:56;;;;;;;9.45;5.55;;;20.60;73.10;;;;;;5047995;28;20130;-62
2022/07/08 04:00:22;;;;;;;20.00;8.68;;;20.60;73.20;;;;;;5049223;28;20648;-62
2022/07/08 04:02:48;;;;;;;47.13;19.05;;;20.60;73.10;;;;;;5046474;28;20029;-63
2022/07/08 04:05:14;;;;;;;45.08;18.73;;;20.60;73.20;;;;;;5043236;28;20613;-61
2022/07/08 04:07:39;;;;;;;106.63;40.85;;;20.60;73.20;;;;;;5041868;28;20091;-61
2022/07/08 04:10:06;;;;;;;57.92;23.40;;;20.50;73.10;;;;;;5012783;28;20037;-61
2022/07/08 04:12:31;;;;;;;37.72;15.30;;;20.50;73.10;;;;;;5047360;28;20016;-62
2022/07/08 04:14:57;;;;;;;27.70;12.25;;;20.50;73.20;;;;;;5041483;28;20024;-62
2022/07/08 04:17:22;;;;;;;35.70;13.50;;;20.50;73.20;;;;;;5042024;28;20020;-61
2022/07/08 04:19:48;;;;;;;25.75;10.00;;;20.50;73.10;;;;;;5044743;28;20500;-61
2022/07/08 04:22:13;;;;;;;16.42;6.70;;;20.50;73.10;;;;;;5040006;28;20107;-62
2022/07/08 04:24:39;;;;;;;16.10;6.00;;;20.50;73.10;;;;;;5046280;28;20028;-61
2022/07/08 04:27:04;;;;;;;11.63;5.95;;;20.50;73.10;;;;;;5045027;28;20018;-61
2022/07/08 04:29:30;;;;;;;17.67;6.80;;;20.40;73.10;;;;;;5045098;28;20021;-63
2022/07/08 04:31:55;;;;;;;88.85;13.57;;;20.40;73.20;;;;;;5042466;28;20060;-62
2022/07/08 04:34:21;;;;;;;78.10;12.68;;;20.40;73.20;;;;;;5044043;28;20063;-62
2022/07/08 04:36:46;;;;;;;35.67;7.97;;;20.40;73.20;;;;;;5041759;28;20095;-61
2022/07/08 04:39:12;;;;;;;38.38;7.57;;;20.40;73.20;;;;;;5045060;28;20553;-61
2022/07/08 04:41:37;;;;;;;26.65;7.03;;;20.50;73.20;;;;;;5043543;28;20678;-62
2022/07/08 04:44:03;;;;;;;27.98;7.03;;;20.40;73.10;;;;;;5040654;28;20559;-61
2022/07/08 04:46:29;;;;;;;28.45;6.40;;;20.40;73.10;;;;;;5010642;28;20044;-62
2022/07/08 04:48:54;;;;;;;27.20;5.88;;;20.40;73.20;;;;;;5041861;28;20029;-62
2022/07/08 04:51:20;;;;;;;31.08;6.68;;;20.40;73.10;;;;;;5039992;28;20043;-61
2022/07/08 04:53:45;;;;;;;32.25;6.60;;;20.40;73.10;;;;;;5042225;28;20031;-61
2022/07/08 04:56:11;;;;;;;25.90;4.88;;;20.40;73.20;;;;;;5045999;28;20029;-63
2022/07/08 04:58:36;;;;;;;18.10;5.18;;;20.40;73.20;;;;;;5038949;28;20044;-61
2022/07/08 05:01:02;;;;;;;16.23;4.20;;;20.40;73.10;;;;;;5039589;28;20025;-63
2022/07/08 05:03:28;;;;;;;16.00;4.43;;;20.40;73.10;;;;;;5040459;28;20091;-61
2022/07/08 05:05:53;;;;;;;15.30;4.82;;;20.40;73.10;;;;;;5037622;28;20091;-62
2022/07/08 05:08:19;;;;;;;16.17;4.32;;;20.30;73.10;;;;;;5038353;28;20434;-62
2022/07/08 05:10:44;;;;;;;16.95;3.78;;;20.30;73.10;;;;;;5039376;28;20052;-62
2022/07/08 05:13:10;;;;;;;10.88;3.50;;;20.40;73.10;;;;;;5039822;28;20477;-62
2022/07/08 05:15:35;;;;;;;11.27;3.58;;;20.30;73.20;;;;;;5041682;28;20021;-62
2022/07/08 05:18:01;;;;;;;11.85;3.47;;;20.40;73.50;;;;;;5041634;28;20107;-62
2022/07/08 05:20:26;;;;;;;9.45;2.83;;;20.40;73.50;;;;;;5021515;28;20488;-61
2022/07/08 05:22:52;;;;;;;11.35;2.97;;;20.30;73.50;;;;;;5035883;28;20140;-61
2022/07/08 05:25:17;;;;;;;12.75;3.22;;;20.30;73.60;;;;;;5041259;28;20108;-62
2022/07/08 05:27:43;;;;;;;4.53;2.60;;;20.30;73.70;;;;;;5041078;28;20037;-61
2022/07/08 05:30:09;;;;;;;7.80;2.13;;;20.30;73.70;;;;;;5039987;28;20446;-61
2022/07/08 05:32:35;;;;;;;8.95;1.63;;;20.30;73.80;;;;;;5024600;28;20390;-62
2022/07/08 05:35:02;;;;;;;5.43;1.80;;;20.30;74.10;;;;;;5022633;28;20025;-63
2022/07/08 05:37:28;;;;;;;5.40;2.35;;;20.20;74.10;;;;;;5023104;28;20457;-63
2022/07/08 05:39:53;;;;;;;3.95;1.88;;;20.20;74.20;;;;;;5019522;28;20080;-62
2022/07/08 05:42:19;;;;;;;3.03;1.70;;;20.00;74.30;;;;;;5041489;28;20133;-61
2022/07/08 05:44:44;;;;;;;4.40;1.40;;;20.10;74.50;;;;;;5041039;28;20112;-62
2022/07/08 05:47:10;;;;;;;5.85;1.63;;;20.10;74.70;;;;;;5041119;28;20025;-60
2022/07/08 05:49:35;;;;;;;6.55;1.80;;;20.10;74.80;;;;;;5037995;28;20516;-63
2022/07/08 05:52:04;;;;;;;3.70;1.20;;;20.10;74.80;;;;;;5038390;28;20075;-62
2022/07/08 05:54:30;;;;;;;5.18;1.38;;;20.10;74.90;;;;;;5038035;28;20124;-61
2022/07/08 05:56:56;;;;;;;5.25;1.20;;;20.10;75.00;;;;;;5024217;28;20029;-61
2022/07/08 05:59:22;;;;;;;4.75;1.10;;;20.00;75.10;;;;;;5038171;28;20029;-63
2022/07/08 06:01:47;;;;;;;2.13;1.20;;;20.00;75.10;;;;;;5036979;28;20227;-61
2022/07/08 06:04:13;;;;;;;8.20;1.42;;;20.00;75.30;;;;;;5030301;28;20037;-62
2022/07/08 06:06:38;;;;;;;2.42;1.17;;;20.00;75.50;;;;;;5022502;28;20060;-61
2022/07/08 06:09:04;;;;;;;2.45;1.20;;;20.00;75.70;;;;;;5035688;28;20138;-61
2022/07/08 06:11:30;;;;;;;5.43;1.10;;;20.00;76.00;;;;;;5035541;28;20053;-61
2022/07/08 06:13:55;;;;;;;3.53;1.40;;;19.90;76.20;;;;;;5029424;28;20160;-62
2022/07/08 06:16:21;;;;;;;3.92;0.82;;;19.80;76.30;;;;;;5037258;28;20398;-61
2022/07/08 06:18:46;;;;;;;2.58;1.40;;;19.80;76.50;;;;;;5014864;28;20497;-61
2022/07/08 06:21:12;;;;;;;3.90;1.70;;;19.80;76.90;;;;;;5025367;28;20029;-61
2022/07/08 06:23:38;;;;;;;4.65;1.90;;;19.80;77.30;;;;;;5014093;28;20493;-62
2022/07/08 06:26:03;;;;;;;4.68;1.70;;;19.80;77.50;;;;;;5037156;28;20241;-63
2022/07/08 06:28:29;;;;;;;4.25;1.15;;;19.70;77.70;;;;;;5033613;28;20621;-62
2022/07/08 06:30:54;;;;;;;5.15;1.42;;;19.70;77.90;;;;;;5039627;28;20059;-60
2022/07/08 06:33:20;;;;;;;3.28;1.58;;;19.70;77.90;;;;;;5031856;28;20044;-62
2022/07/08 06:35:45;;;;;;;3.30;1.48;;;19.60;77.80;;;;;;5031345;28;20032;-62
2022/07/08 06:38:11;;;;;;;5.65;1.50;;;19.60;77.80;;;;;;5034460;28;20106;-62
2022/07/08 06:40:36;;;;;;;11.15;1.60;;;19.60;77.80;;;;;;5038691;28;20296;-64
2022/07/08 06:43:02;;;;;;;4.60;1.20;;;19.60;77.80;;;;;;5029957;28;20111;-61
2022/07/08 06:45:31;;;;;;;3.38;1.50;;;19.60;77.80;;;;;;5034887;28;20036;-62
2022/07/08 06:48:00;;;;;;;7.03;1.80;;;19.60;77.70;;;;;;5037109;28;20486;-62
2022/07/08 06:50:25;;;;;;;9.30;1.92;;;19.60;77.50;;;;;;5040372;28;20116;-61
2022/07/08 06:52:51;;;;;;;16.00;2.70;;;19.60;77.30;;;;;;5034785;28;20541;-60
2022/07/08 06:55:16;;;;;;;17.95;2.15;;;19.60;77.30;;;;;;5032873;28;20556;-62
2022/07/08 06:57:42;;;;;;;20.67;2.60;;;19.60;77.30;;;;;;5017648;28;20394;-62
2022/07/08 07:00:08;;;;;;;11.55;2.25;;;19.60;77.20;;;;;;5022697;28;20066;-62
2022/07/08 07:02:33;;;;;;;9.55;2.45;;;19.60;77.30;;;;;;5021075;28;20032;-62
2022/07/08 07:04:59;;;;;;;21.58;2.88;;;19.60;77.30;;;;;;5034358;28;20397;-61
2022/07/08 07:07:24;;;;;;;16.65;2.55;;;19.60;77.20;;;;;;5032687;28;20127;-60
2022/07/08 07:09:50;;;;;;;13.57;2.72;;;19.60;77.20;;;;;;5033571;28;20489;-61
2022/07/08 07:12:16;;;;;;;18.05;2.55;;;19.60;77.20;;;;;;5034632;28;20273;-61
2022/07/08 07:14:41;;;;;;;13.98;2.45;;;19.70;77.20;;;;;;5031554;28;20148;-62
2022/07/08 07:17:07;;;;;;;14.65;2.35;;;19.60;77.00;;;;;;5036848;28;20698;-63
2022/07/08 07:19:32;;;;;;;21.00;2.70;;;19.70;77.00;;;;;;5037260;28;20395;-62
2022/07/08 07:21:58;;;;;;;18.58;2.97;;;19.60;76.90;;;;;;5028562;28;20456;-62
2022/07/08 07:24:23;;;;;;;16.20;3.05;;;19.70;77.00;;;;;;5009512;28;20740;-62
2022/07/08 07:26:49;;;;;;;20.40;2.97;;;19.70;77.10;;;;;;5018182;28;20032;-63
2022/07/08 07:29:14;;;;;;;14.80;2.65;;;19.60;77.10;;;;;;5035461;28;20029;-61
2022/07/08 07:31:40;;;;;;;14.70;2.25;;;19.60;77.30;;;;;;5015398;28;20085;-62
2022/07/08 07:34:07;;;;;;;11.35;2.55;;;19.60;77.30;;;;;;5037757;28;20408;-62
2022/07/08 07:36:32;;;;;;;8.60;2.05;;;19.60;78.10;;;;;;5015399;28;20037;-61
2022/07/08 07:38:58;;;;;;;13.68;2.25;;;19.60;77.30;;;;;;5035151;28;20056;-62
2022/07/08 07:41:24;;;;;;;6.70;2.20;;;19.50;77.20;;;;;;5021879;28;20526;-61
2022/07/08 07:43:49;;;;;;;8.05;2.17;;;19.60;77.30;;;;;;5036966;28;20033;-61
2022/07/08 07:46:15;;;;;;;12.10;2.33;;;19.60;77.30;;;;;;5038333;28;20037;-61
2022/07/08 07:48:40;;;;;;;10.45;2.10;;;19.50;77.30;;;;;;5032568;28;20018;-61
2022/07/08 07:51:06;;;;;;;15.63;2.10;;;19.60;77.30;;;;;;5030143;28;20091;-60
2022/07/08 07:53:32;;;;;;;11.98;2.67;;;19.50;77.10;;;;;;5029284;28;20037;-62
2022/07/08 07:55:57;;;;;;;7.15;1.70;;;19.50;77.10;;;;;;5032959;28;20144;-62
2022/07/08 07:58:23;;;;;;;9.70;2.15;;;19.60;77.10;;;;;;5019715;28;20854;-63
2022/07/08 08:00:49;;;;;;;18.38;2.17;;;19.50;76.80;;;;;;5026013;28;20032;-61
2022/07/08 08:03:14;;;;;;;15.57;2.90;;;19.50;76.80;;;;;;5015069;28;20093;-62
2022/07/08 08:05:42;;;;;;;7.57;2.05;;;19.60;76.80;;;;;;5029690;28;20029;-61
2022/07/08 08:08:08;;;;;;;11.55;2.15;;;19.50;76.60;;;;;;5028747;28;20082;-62
2022/07/08 08:10:33;;;;;;;10.30;2.50;;;19.60;76.50;;;;;;5033001;28;20036;-62
2022/07/08 08:12:59;;;;;;;9.55;2.58;;;19.60;76.60;;;;;;5018645;28;20050;-63
2022/07/08 08:15:29;;;;;;;7.40;1.98;;;19.60;76.70;;;;;;5034321;28;20041;-61
2022/07/08 08:17:54;;;;;;;15.27;2.60;;;19.60;76.40;;;;;;5027895;28;20186;-62
2022/07/08 08:20:23;;;;;;;12.27;2.78;;;19.60;76.30;;;;;;5032710;28;20102;-61
2022/07/08 08:22:48;;;;;;;9.90;2.28;;;19.70;76.20;;;;;;5032205;28;20033;-62
2022/07/08 08:25:14;;;;;;;9.52;2.58;;;19.70;76.10;;;;;;5035758;28;20322;-61
2022/07/08 08:27:40;;;;;;;6.00;2.20;;;19.70;76.00;;;;;;5037695;28;20036;-62
2022/07/08 08:30:07;;;;;;;12.30;2.67;;;19.70;75.90;;;;;;5029641;28;20029;-62
2022/07/08 08:32:33;;;;;;;16.48;2.78;;;19.80;75.90;;;;;;5035105;28;20025;-61
2022/07/08 08:34:58;;;;;;;15.82;2.80;;;19.80;75.50;;;;;;5033478;28;20057;-62
2022/07/08 08:37:25;;;;;;;37.13;3.40;;;19.80;75.50;;;;;;5040179;28;20253;-62
2022/07/08 08:39:51;;;;;;;12.23;3.38;;;19.90;75.30;;;;;;5035256;28;20575;-61
2022/07/08 08:42:16;;;;;;;18.65;3.20;;;19.90;75.30;;;;;;5031420;28;20043;-61
2022/07/08 08:44:42;;;;;;;21.00;3.33;;;19.90;75.10;;;;;;5012129;28;20041;-62
2022/07/08 08:47:08;;;;;;;17.63;2.85;;;19.90;75.00;;;;;;5034635;28;20045;-61
2022/07/08 08:49:34;;;;;;;22.20;2.63;;;19.90;74.80;;;;;;5015874;28;20414;-61
2022/07/08 08:52:00;;;;;;;23.00;3.13;;;19.90;75.00;;;;;;5018278;28;20147;-62
2022/07/08 08:54:26;;;;;;;13.25;3.25;;;20.00;74.70;;;;;;5038297;28;20044;-62
2022/07/08 08:56:52;;;;;;;14.68;3.03;;;20.00;74.60;;;;;;5023429;28;20465;-61
2022/07/08 08:59:18;;;;;;;21.10;2.97;;;19.90;74.50;;;;;;5036052;28;20056;-62
2022/07/08 09:01:43;;;;;;;22.90;3.85;;;20.00;74.40;;;;;;5031795;28;20021;-63
2022/07/08 09:04:11;;;;;;;44.47;4.65;;;20.00;74.40;;;;;;5031129;28;20037;-63
2022/07/08 09:06:38;;;;;;;38.22;5.05;;;20.00;74.40;;;;;;5034492;28;20037;-64
2022/07/08 09:09:04;;;;;;;33.33;4.68;;;20.00;74.40;;;;;;5033904;28;20124;-64
2022/07/08 09:11:30;;;;;;;35.03;4.75;;;20.10;74.50;;;;;;5034887;28;20097;-64
2022/07/08 09:14:16;;;;;;;26.52;4.07;;;20.10;74.30;;;;;;5015168;28;20151;-61
2022/07/08 09:17:08;;;;;;;29.08;4.00;;;20.00;74.20;;;;;;5016561;28;20028;-62
2022/07/08 09:19:34;;;;;;;18.75;3.17;;;20.10;74.00;;;;;;5038218;28;20096;-61
2022/07/08 09:21:59;;;;;;;18.63;2.63;;;20.10;73.90;;;;;;5035196;28;20104;-62
2022/07/08 09:24:27;;;;;;;21.02;3.30;;;20.10;73.70;;;;;;5039293;28;20033;-62
2022/07/08 09:26:56;;;;;;;23.15;3.85;;;20.20;73.70;;;;;;5037568;28;20053;-62
2022/07/08 09:29:22;;;;;;;34.72;3.60;;;20.20;73.70;;;;;;5042450;28;20417;-63
2022/07/08 09:31:47;;;;;;;18.35;2.85;;;20.20;73.40;;;;;;5035755;28;20051;-62
2022/07/08 09:34:16;;;;;;;23.88;3.38;;;20.20;73.40;;;;;;5036007;28;20419;-61
2022/07/08 09:36:48;;;;;;;19.60;3.15;;;20.20;73.40;;;;;;5033191;28;20041;-61
2022/07/08 09:39:26;;;;;;;21.67;3.25;;;20.20;73.40;;;;;;5019576;28;20060;-60
2022/07/08 09:41:52;;;;;;;18.17;3.05;;;20.20;73.20;;;;;;5031953;28;20263;-62
2022/07/08 09:44:19;;;;;;;22.70;3.45;;;20.20;73.00;;;;;;5023696;28;20048;-61
2022/07/08 09:46:45;;;;;;;28.80;4.28;;;20.30;73.00;;;;;;5036758;28;20492;-62
2022/07/08 09:49:27;;;;;;;27.33;3.92;;;20.30;72.90;;;;;;5028840;28;20029;-61
2022/07/08 09:51:52;;;;;;;27.50;4.28;;;20.30;72.60;;;;;;5028627;28;20025;-61
2022/07/08 09:54:18;;;;;;;24.08;3.42;;;20.40;72.50;;;;;;5013474;28;20098;-61
2022/07/08 09:57:05;;;;;;;25.95;4.20;;;20.40;72.30;;;;;;5034358;28;20033;-62
2022/07/08 09:59:32;;;;;;;36.47;3.70;;;20.40;72.20;;;;;;5030132;28;20048;-63
2022/07/08 10:01:58;;;;;;;21.33;3.92;;;20.40;72.00;;;;;;5031124;28;20508;-62
2022/07/08 10:04:24;;;;;;;11.70;2.78;;;20.50;71.80;;;;;;5032807;28;20025;-63
2022/07/08 10:06:50;;;;;;;29.20;3.53;;;20.50;71.40;;;;;;5027981;28;20028;-63
2022/07/08 10:09:16;;;;;;;66.35;7.03;;;20.60;71.20;;;;;;5022366;28;20448;-63
2022/07/08 10:11:41;;;;;;;45.45;4.65;;;20.60;71.00;;;;;;5021311;28;20025;-61
2022/07/08 10:14:08;;;;;;;41.40;4.43;;;20.60;70.40;;;;;;5000573;28;20040;-61
2022/07/08 10:16:33;;;;;;;32.85;4.18;;;20.60;70.40;;;;;;5019467;28;20517;-62
2022/07/08 10:18:59;;;;;;;26.60;3.88;;;20.60;69.90;;;;;;5007442;28;20061;-62
2022/07/08 10:21:25;;;;;;;32.75;3.47;;;20.70;70.00;;;;;;5000149;28;20341;-64
2022/07/08 10:23:51;;;;;;;25.30;3.38;;;20.70;70.00;;;;;;5030630;28;20112;-62
2022/07/08 10:26:28;;;;;;;47.17;4.35;;;20.70;69.60;;;;;;5014693;28;20140;-62
2022/07/08 10:29:01;;;;;;;31.88;3.75;;;20.80;69.60;;;;;;5026801;28;20060;-62
2022/07/08 10:31:29;;;;;;;32.05;4.03;;;20.80;69.10;;;;;;5028396;28;20048;-62
2022/07/08 10:34:00;;;;;;;27.65;3.05;;;20.80;68.80;;;;;;5029530;28;20025;-62
2022/07/08 10:36:26;;;;;;;29.98;3.25;;;20.80;68.30;;;;;;5003870;28;20076;-61
2022/07/08 10:38:52;;;;;;;22.10;3.83;;;20.90;68.60;;;;;;5030517;28;20412;-61
2022/07/08 10:41:22;;;;;;;14.02;3.33;;;20.90;68.20;;;;;;5000693;28;20449;-62
2022/07/08 10:43:51;;;;;;;29.52;3.58;;;20.90;67.40;;;;;;5014068;28;20487;-63
2022/07/08 10:46:17;;;;;;;21.80;2.70;;;21.00;67.20;;;;;;5032310;28;20083;-61
2022/07/08 10:48:45;;;;;;;18.23;2.80;;;21.00;66.70;;;;;;5024699;28;20062;-62
2022/07/08 10:51:35;;;;;;;31.65;4.03;;;21.10;66.60;;;;;;5029532;28;20466;-61
2022/07/08 10:54:01;;;;;;;25.58;3.20;;;21.10;66.40;;;;;;5031927;28;20047;-62
2022/07/08 10:56:49;;;;;;;16.80;3.20;;;21.20;65.90;;;;;;5017152;28;20393;-61
2022/07/08 10:59:22;;;;;;;38.30;3.58;;;21.20;65.30;;;;;;5029800;28;20025;-62
2022/07/08 11:02:03;;;;;;;26.77;3.83;;;21.30;64.70;;;;;;5023736;28;20021;-62
2022/07/08 11:04:39;;;;;;;22.13;3.30;;;21.40;64.30;;;;;;5017303;28;20041;-62
2022/07/08 11:09:43;;;;;;;19.95;3.15;;;21.60;63.20;;;;;;5022691;28;20041;-61
2022/07/08 11:12:21;;;;;;;31.70;3.92;;;21.60;62.80;;;;;;5010628;28;20029;-63
2022/07/08 11:14:48;;;;;;;34.75;4.68;;;21.70;62.80;;;;;;5015856;28;20056;-63
2022/07/08 11:17:18;;;;;;;23.60;3.60;;;21.80;62.90;;;;;;5026057;28;20037;-65
2022/07/08 11:19:44;;;;;;;34.95;3.92;;;21.80;62.90;;;;;;5009359;28;20042;-63
2022/07/08 11:22:09;;;;;;;30.35;4.05;;;21.90;62.40;;;;;;5017142;28;20440;-63
2022/07/08 11:24:39;;;;;;;15.30;3.10;;;22.00;61.90;;;;;;5026132;28;20045;-63
2022/07/08 11:27:05;;;;;;;15.82;3.42;;;22.10;61.90;;;;;;5023283;28;20052;-65
2022/07/08 11:29:30;;;;;;;21.85;3.00;;;22.20;62.20;;;;;;5003930;28;20265;-63
2022/07/08 11:31:57;;;;;;;31.23;3.30;;;22.20;61.70;;;;;;5019267;28;20037;-64
2022/07/08 11:34:24;;;;;;;10.88;2.05;;;22.30;61.40;;;;;;5030239;28;20136;-62
2022/07/08 11:36:53;;;;;;;24.02;2.38;;;22.40;60.80;;;;;;5029441;28;20033;-61
2022/07/08 11:39:19;;;;;;;10.63;2.20;;;22.50;60.40;;;;;;5021803;28;20041;-61
2022/07/08 11:41:44;;;;;;;7.78;1.80;;;22.50;60.60;;;;;;5027703;28;20021;-63
2022/07/08 11:44:11;;;;;;;7.07;1.90;;;22.60;60.40;;;;;;5006615;28;20988;-63
2022/07/08 11:47:04;;;;;;;13.45;2.25;;;22.70;60.20;;;;;;5026662;28;20120;-62
2022/07/08 11:49:29;;;;;;;13.82;2.72;;;22.80;60.20;;;;;;5027491;28;20056;-63
2022/07/08 11:51:56;;;;;;;15.10;2.15;;;22.80;60.20;;;;;;5018144;28;20096;-64
2022/07/08 11:54:23;;;;;;;13.60;3.38;;;22.90;59.90;;;;;;5017168;28;20026;-63
2022/07/08 11:56:57;;;;;;;22.38;2.45;;;23.00;59.60;;;;;;5027331;28;20049;-62
2022/07/08 11:59:27;;;;;;;25.63;3.78;;;23.00;59.60;;;;;;5024506;28;20021;-64
2022/07/08 12:01:53;;;;;;;21.60;3.72;;;23.10;59.70;;;;;;5021644;28;22007;-62
2022/07/08 12:04:19;;;;;;;18.88;2.65;;;23.10;59.40;;;;;;5023381;28;20025;-63
2022/07/08 12:06:48;;;;;;;22.98;3.03;;;23.20;59.10;;;;;;5024865;28;20102;-63
2022/07/08 12:09:14;;;;;;;20.00;3.22;;;23.30;58.90;;;;;;5029812;28;20082;-62
2022/07/08 12:11:41;;;;;;;16.63;3.10;;;23.40;58.20;;;;;;5011768;28;20054;-63
2022/07/08 12:14:11;;;;;;;16.67;2.38;;;23.50;57.90;;;;;;5020585;28;20044;-64
2022/07/08 12:16:43;;;;;;;27.38;2.75;;;23.60;57.50;;;;;;5030903;28;20044;-61
2022/07/08 12:19:31;;;;;;;19.65;2.97;;;23.70;57.70;;;;;;5027245;28;20488;-63
2022/07/08 12:21:59;;;;;;;24.60;2.63;;;23.70;57.70;;;;;;5034651;28;20032;-62
2022/07/08 12:24:27;;;;;;;14.57;2.90;;;23.80;57.60;;;;;;5025748;28;20025;-61
2022/07/08 12:27:00;;;;;;;31.27;3.42;;;23.90;57.60;;;;;;5032309;28;20037;-61
2022/07/08 12:29:26;;;;;;;23.90;4.07;;;24.00;57.60;;;;;;5033013;28;20032;-63
2022/07/08 12:31:52;;;;;;;23.10;2.83;;;24.10;57.60;;;;;;5029606;28;20025;-63
2022/07/08 12:34:19;;;;;;;22.23;3.20;;;24.10;57.70;;;;;;5032316;28;20036;-61
2022/07/08 12:36:45;;;;;;;25.80;3.65;;;24.20;57.60;;;;;;5035024;28;20476;-61
2022/07/08 12:39:12;;;;;;;26.58;4.07;;;24.30;57.60;;;;;;5029690;28;20075;-62
2022/07/08 12:41:37;;;;;;;18.88;2.88;;;24.40;57.40;;;;;;5027093;28;20036;-62
2022/07/08 12:44:32;;;;;;;28.95;3.38;;;24.50;57.40;;;;;;5015509;28;20032;-62
2022/07/08 12:46:58;;;;;;;28.63;3.35;;;24.60;57.00;;;;;;5021639;28;20112;-61